sensor_id;sensor_type;location;lat;lon;timestamp;pressure;altitude;pressure_sealevel;temperature;humidity
18509;BME280;9383;50.928;12.116;2023-06-10T00:02:17;98710.00;;;16.70;69.26
18509;BME280;9383;50.928;12.116;2023-06-10T00:04:44;98727.66;;;16.73;69.07
18509;BME280;9383;50.928;12.116;2023-06-10T00:07:11;98723.19;;;16.73;69.37
18509;BME280;9383;50.928;12.116;2023-06-10T00:09:40;98716.88;;;16.74;69.19
18509;BME280;9383;50.928;12.116;2023-06-10T00:12:08;98714.41;;;16.71;69.44
18509;BME280;9383;50.928;12.116;2023-06-10T00:14:38;98711.06;;;16.68;69.36
18509;BME280;9383;50.928;12.116;2023-06-10T00:17:05;98710.38;;;16.64;69.40
18509;BME280;9383;50.928;12.116;2023-06-10T00:19:36;98707.03;;;16.60;69.52
18509;BME280;9383;50.928;12.116;2023-06-10T00:22:04;98714.44;;;16.57;69.05
18509;BME280;9383;50.928;12.116;2023-06-10T00:24:31;98716.63;;;16.50;69.04
18509;BME280;9383;50.928;12.116;2023-06-10T00:26:57;98721.31;;;16.47;69.27
18509;BME280;9383;50.928;12.116;2023-06-10T00:29:24;98716.34;;;16.40;69.72
18509;BME280;9383;50.928;12.116;2023-06-10T00:31:51;98716.63;;;16.36;69.52
18509;BME280;9383;50.928;12.116;2023-06-10T00:34:20;98718.66;;;16.32;69.28
18509;BME280;9383;50.928;12.116;2023-06-10T00:36:47;98716.25;;;16.27;69.41
18509;BME280;9383;50.928;12.116;2023-06-10T00:39:13;98713.19;;;16.19;70.25
18509;BME280;9383;50.928;12.116;2023-06-10T00:41:40;98715.47;;;16.11;70.59
18509;BME280;9383;50.928;12.116;2023-06-10T00:44:06;98720.25;;;16.06;70.24
18509;BME280;9383;50.928;12.116;2023-06-10T00:46:33;98724.34;;;15.97;70.37
18509;BME280;9383;50.928;12.116;2023-06-10T00:49:00;98717.66;;;15.89;70.39
18509;BME280;9383;50.928;12.116;2023-06-10T00:51:27;98721.63;;;15.82;71.07
18509;BME280;9383;50.928;12.116;2023-06-10T00:53:54;98723.69;;;15.77;71.14
18509;BME280;9383;50.928;12.116;2023-06-10T00:56:21;98716.25;;;15.68;71.42
18509;BME280;9383;50.928;12.116;2023-06-10T00:58:48;98714.97;;;15.59;71.95
18509;BME280;9383;50.928;12.116;2023-06-10T01:01:15;98715.34;;;15.53;72.06
18509;BME280;9383;50.928;12.116;2023-06-10T01:03:41;98707.94;;;15.42;72.76
18509;BME280;9383;50.928;12.116;2023-06-10T01:09:06;98706.00;;;15.29;75.87
18509;BME280;9383;50.928;12.116;2023-06-10T01:11:46;98714.00;;;15.29;76.36
18509;BME280;9383;50.928;12.116;2023-06-10T01:14:14;98712.47;;;15.25;76.51
18509;BME280;9383;50.928;12.116;2023-06-10T01:16:43;98719.91;;;15.20;77.08
18509;BME280;9383;50.928;12.116;2023-06-10T01:19:12;98718.25;;;15.17;78.42
18509;BME280;9383;50.928;12.116;2023-06-10T01:21:40;98712.16;;;15.15;78.90
18509;BME280;9383;50.928;12.116;2023-06-10T01:24:07;98716.72;;;15.13;79.82
18509;BME280;9383;50.928;12.116;2023-06-10T01:26:34;98718.53;;;15.13;80.28
18509;BME280;9383;50.928;12.116;2023-06-10T01:29:11;98733.00;;;15.09;79.98
18509;BME280;9383;50.928;12.116;2023-06-10T01:31:48;98727.06;;;15.03;80.11
18509;BME280;9383;50.928;12.116;2023-06-10T01:34:18;98711.97;;;15.02;81.22
18509;BME280;9383;50.928;12.116;2023-06-10T01:36:48;98702.38;;;15.00;81.60
18509;BME280;9383;50.928;12.116;2023-06-10T01:39:20;98724.75;;;14.97;82.11
18509;BME280;9383;50.928;12.116;2023-06-10T01:41:49;98716.22;;;14.90;82.86
18509;BME280;9383;50.928;12.116;2023-06-10T01:44:21;98723.34;;;14.90;83.38
18509;BME280;9383;50.928;12.116;2023-06-10T01:46:48;98719.91;;;14.88;83.34
18509;BME280;9383;50.928;12.116;2023-06-10T01:49:15;98719.91;;;14.88;83.63
18509;BME280;9383;50.928;12.116;2023-06-10T01:51:42;98742.31;;;14.85;83.87
18509;BME280;9383;50.928;12.116;2023-06-10T01:54:08;98731.91;;;14.81;84.31
18509;BME280;9383;50.928;12.116;2023-06-10T01:56:35;98741.78;;;14.79;84.51
18509;BME280;9383;50.928;12.116;2023-06-10T01:59:01;98744.00;;;14.70;84.21
18509;BME280;9383;50.928;12.116;2023-06-10T02:01:28;98747.75;;;14.66;84.18
18509;BME280;9383;50.928;12.116;2023-06-10T02:03:55;98756.88;;;14.62;84.60
18509;BME280;9383;50.928;12.116;2023-06-10T02:06:21;98751.91;;;14.56;85.28
18509;BME280;9383;50.928;12.116;2023-06-10T02:08:48;98750.31;;;14.52;85.23
18509;BME280;9383;50.928;12.116;2023-06-10T02:11:14;98750.50;;;14.48;85.13
18509;BME280;9383;50.928;12.116;2023-06-10T02:13:41;98751.69;;;14.43;85.64
18509;BME280;9383;50.928;12.116;2023-06-10T02:16:07;98751.16;;;14.36;85.61
18509;BME280;9383;50.928;12.116;2023-06-10T02:18:35;98741.69;;;14.30;86.41
18509;BME280;9383;50.928;12.116;2023-06-10T02:21:02;98737.63;;;14.23;86.75
18509;BME280;9383;50.928;12.116;2023-06-10T02:23:28;98743.22;;;14.18;86.61
18509;BME280;9383;50.928;12.116;2023-06-10T02:25:55;98736.31;;;14.14;87.24
18509;BME280;9383;50.928;12.116;2023-06-10T02:28:22;98754.28;;;14.11;87.01
18509;BME280;9383;50.928;12.116;2023-06-10T02:30:48;98746.53;;;14.06;87.63
18509;BME280;9383;50.928;12.116;2023-06-10T02:33:15;98741.25;;;14.04;88.22
18509;BME280;9383;50.928;12.116;2023-06-10T02:35:42;98752.94;;;14.02;88.28
18509;BME280;9383;50.928;12.116;2023-06-10T02:38:08;98753.09;;;13.99;88.17
18509;BME280;9383;50.928;12.116;2023-06-10T02:40:35;98745.22;;;13.97;88.70
18509;BME280;9383;50.928;12.116;2023-06-10T02:43:02;98744.50;;;13.93;88.92
18509;BME280;9383;50.928;12.116;2023-06-10T02:45:28;98750.00;;;13.90;88.87
18509;BME280;9383;50.928;12.116;2023-06-10T02:47:55;98752.81;;;13.87;89.18
18509;BME280;9383;50.928;12.116;2023-06-10T02:50:21;98755.69;;;13.83;89.45
18509;BME280;9383;50.928;12.116;2023-06-10T02:52:49;98756.75;;;13.80;90.17
18509;BME280;9383;50.928;12.116;2023-06-10T02:55:16;98761.28;;;13.78;90.41
18509;BME280;9383;50.928;12.116;2023-06-10T02:57:43;98772.97;;;13.75;90.59
18509;BME280;9383;50.928;12.116;2023-06-10T03:00:10;98773.13;;;13.72;90.78
18509;BME280;9383;50.928;12.116;2023-06-10T03:02:40;98769.75;;;13.69;91.03
18509;BME280;9383;50.928;12.116;2023-06-10T03:05:07;98778.81;;;13.64;91.21
18509;BME280;9383;50.928;12.116;2023-06-10T03:07:37;98787.84;;;13.62;91.27
18509;BME280;9383;50.928;12.116;2023-06-10T03:10:05;98789.56;;;13.63;92.37
18509;BME280;9383;50.928;12.116;2023-06-10T03:12:32;98791.34;;;13.62;92.98
18509;BME280;9383;50.928;12.116;2023-06-10T03:15:01;98790.50;;;13.62;92.83
18509;BME280;9383;50.928;12.116;2023-06-10T03:17:30;98794.16;;;13.59;93.45
18509;BME280;9383;50.928;12.116;2023-06-10T03:19:57;98802.16;;;13.59;93.62
18509;BME280;9383;50.928;12.116;2023-06-10T03:22:23;98805.75;;;13.58;93.38
18509;BME280;9383;50.928;12.116;2023-06-10T03:24:50;98797.00;;;13.56;93.83
18509;BME280;9383;50.928;12.116;2023-06-10T03:27:17;98802.38;;;13.55;94.52
18509;BME280;9383;50.928;12.116;2023-06-10T03:29:44;98792.59;;;13.55;95.32
18509;BME280;9383;50.928;12.116;2023-06-10T03:32:10;98803.31;;;13.54;95.39
18509;BME280;9383;50.928;12.116;2023-06-10T03:34:37;98811.25;;;13.55;95.42
18509;BME280;9383;50.928;12.116;2023-06-10T03:37:03;98804.09;;;13.56;95.79
18509;BME280;9383;50.928;12.116;2023-06-10T03:39:30;98806.78;;;13.56;95.97
18509;BME280;9383;50.928;12.116;2023-06-10T03:41:57;98804.09;;;13.56;96.03
18509;BME280;9383;50.928;12.116;2023-06-10T03:44:24;98802.22;;;13.58;96.04
18509;BME280;9383;50.928;12.116;2023-06-10T03:46:52;98807.41;;;13.61;96.32
18509;BME280;9383;50.928;12.116;2023-06-10T03:49:19;98805.59;;;13.61;96.19
18509;BME280;9383;50.928;12.116;2023-06-10T03:51:45;98809.94;;;13.64;96.63
18509;BME280;9383;50.928;12.116;2023-06-10T03:54:12;98816.81;;;13.68;96.35
18509;BME280;9383;50.928;12.116;2023-06-10T03:56:39;98813.94;;;13.73;96.21
18509;BME280;9383;50.928;12.116;2023-06-10T03:59:06;98812.91;;;13.75;96.72
18509;BME280;9383;50.928;12.116;2023-06-10T04:01:33;98816.28;;;13.79;96.82
18509;BME280;9383;50.928;12.116;2023-06-10T04:04:01;98818.81;;;13.82;96.68
18509;BME280;9383;50.928;12.116;2023-06-10T04:06:28;98815.03;;;13.86;96.42
18509;BME280;9383;50.928;12.116;2023-06-10T04:08:55;98813.06;;;13.90;96.45
18509;BME280;9383;50.928;12.116;2023-06-10T04:11:24;98826.25;;;13.93;96.49
18509;BME280;9383;50.928;12.116;2023-06-10T04:13:51;98812.69;;;13.98;96.39
18509;BME280;9383;50.928;12.116;2023-06-10T04:16:17;98810.56;;;14.04;96.22
18509;BME280;9383;50.928;12.116;2023-06-10T04:18:44;98817.44;;;14.09;96.35
18509;BME280;9383;50.928;12.116;2023-06-10T04:21:10;98822.56;;;14.13;96.33
18509;BME280;9383;50.928;12.116;2023-06-10T04:23:37;98822.31;;;14.18;96.37
18509;BME280;9383;50.928;12.116;2023-06-10T04:26:05;98819.41;;;14.23;96.67
18509;BME280;9383;50.928;12.116;2023-06-10T04:28:32;98812.03;;;14.28;96.44
18509;BME280;9383;50.928;12.116;2023-06-10T04:30:59;98815.31;;;14.33;96.28
18509;BME280;9383;50.928;12.116;2023-06-10T04:33:25;98815.09;;;14.38;96.24
18509;BME280;9383;50.928;12.116;2023-06-10T04:35:52;98816.41;;;14.46;96.12
18509;BME280;9383;50.928;12.116;2023-06-10T04:38:19;98817.81;;;14.54;96.75
18509;BME280;9383;50.928;12.116;2023-06-10T04:40:46;98824.22;;;14.67;96.80
18509;BME280;9383;50.928;12.116;2023-06-10T04:43:12;98818.25;;;14.80;96.55
18509;BME280;9383;50.928;12.116;2023-06-10T04:45:39;98820.25;;;14.92;96.39
18509;BME280;9383;50.928;12.116;2023-06-10T04:48:06;98815.84;;;15.07;96.02
18509;BME280;9383;50.928;12.116;2023-06-10T04:50:33;98820.31;;;15.23;95.20
18509;BME280;9383;50.928;12.116;2023-06-10T04:53:00;98813.50;;;15.33;94.41
18509;BME280;9383;50.928;12.116;2023-06-10T04:55:26;98813.19;;;15.39;93.32
18509;BME280;9383;50.928;12.116;2023-06-10T04:57:53;98824.56;;;15.43;92.92
18509;BME280;9383;50.928;12.116;2023-06-10T05:00:20;98817.91;;;15.50;93.23
18509;BME280;9383;50.928;12.116;2023-06-10T05:02:46;98819.69;;;15.66;93.05
18509;BME280;9383;50.928;12.116;2023-06-10T05:05:18;98819.75;;;15.80;92.33
18509;BME280;9383;50.928;12.116;2023-06-10T05:07:45;98825.19;;;15.95;91.85
18509;BME280;9383;50.928;12.116;2023-06-10T05:10:12;98829.78;;;16.07;90.69
18509;BME280;9383;50.928;12.116;2023-06-10T05:12:39;98831.31;;;16.11;90.26
18509;BME280;9383;50.928;12.116;2023-06-10T05:15:07;98831.91;;;16.16;89.63
18509;BME280;9383;50.928;12.116;2023-06-10T05:17:34;98828.09;;;16.21;89.33
18509;BME280;9383;50.928;12.116;2023-06-10T05:20:04;98827.34;;;16.19;89.05
18509;BME280;9383;50.928;12.116;2023-06-10T05:22:31;98822.84;;;16.19;89.52
18509;BME280;9383;50.928;12.116;2023-06-10T05:24:57;98834.91;;;16.26;89.71
18509;BME280;9383;50.928;12.116;2023-06-10T05:27:24;98833.66;;;16.32;89.75
18509;BME280;9383;50.928;12.116;2023-06-10T05:29:50;98835.47;;;16.31;89.27
18509;BME280;9383;50.928;12.116;2023-06-10T05:32:18;98831.16;;;16.29;89.75
18509;BME280;9383;50.928;12.116;2023-06-10T05:34:44;98828.69;;;16.26;90.16
18509;BME280;9383;50.928;12.116;2023-06-10T05:37:12;98830.31;;;16.28;90.74
18509;BME280;9383;50.928;12.116;2023-06-10T05:39:39;98829.28;;;16.31;90.43
18509;BME280;9383;50.928;12.116;2023-06-10T05:42:07;98829.56;;;16.41;90.70
18509;BME280;9383;50.928;12.116;2023-06-10T05:44:34;98833.28;;;16.53;90.61
18509;BME280;9383;50.928;12.116;2023-06-10T05:47:01;98832.94;;;16.59;90.15
18509;BME280;9383;50.928;12.116;2023-06-10T05:49:28;98830.63;;;16.67;90.12
18509;BME280;9383;50.928;12.116;2023-06-10T05:51:54;98835.59;;;16.73;89.55
18509;BME280;9383;50.928;12.116;2023-06-10T05:54:22;98841.25;;;16.83;89.98
18509;BME280;9383;50.928;12.116;2023-06-10T05:56:49;98844.78;;;16.98;89.48
18509;BME280;9383;50.928;12.116;2023-06-10T05:59:15;98845.19;;;17.07;89.04
18509;BME280;9383;50.928;12.116;2023-06-10T06:01:42;98848.22;;;17.15;88.58
18509;BME280;9383;50.928;12.116;2023-06-10T06:04:08;98840.78;;;17.20;88.14
18509;BME280;9383;50.928;12.116;2023-06-10T06:06:38;98852.03;;;17.25;87.92
18509;BME280;9383;50.928;12.116;2023-06-10T06:09:05;98845.22;;;17.34;88.08
18509;BME280;9383;50.928;12.116;2023-06-10T06:11:32;98842.91;;;17.42;87.08
18509;BME280;9383;50.928;12.116;2023-06-10T06:13:59;98845.31;;;17.47;87.00
18509;BME280;9383;50.928;12.116;2023-06-10T06:16:26;98849.19;;;17.56;87.21
18509;BME280;9383;50.928;12.116;2023-06-10T06:18:52;98844.00;;;17.67;86.87
18509;BME280;9383;50.928;12.116;2023-06-10T06:21:19;98855.25;;;17.72;86.19
18509;BME280;9383;50.928;12.116;2023-06-10T06:23:45;98855.38;;;17.71;85.93
18509;BME280;9383;50.928;12.116;2023-06-10T06:26:12;98848.38;;;17.68;85.93
18509;BME280;9383;50.928;12.116;2023-06-10T06:28:38;98857.19;;;17.70;86.08
18509;BME280;9383;50.928;12.116;2023-06-10T06:31:05;98857.84;;;17.74;86.27
18509;BME280;9383;50.928;12.116;2023-06-10T06:33:32;98853.03;;;17.79;86.71
18509;BME280;9383;50.928;12.116;2023-06-10T06:35:58;98858.97;;;17.84;86.54
18509;BME280;9383;50.928;12.116;2023-06-10T06:38:27;98856.53;;;17.94;86.24
18509;BME280;9383;50.928;12.116;2023-06-10T06:40:54;98859.47;;;18.04;86.05
18509;BME280;9383;50.928;12.116;2023-06-10T06:43:20;98853.69;;;18.10;85.16
18509;BME280;9383;50.928;12.116;2023-06-10T06:45:47;98855.94;;;18.17;85.20
18509;BME280;9383;50.928;12.116;2023-06-10T06:48:13;98855.94;;;18.17;84.62
18509;BME280;9383;50.928;12.116;2023-06-10T06:50:40;98861.09;;;18.20;85.35
18509;BME280;9383;50.928;12.116;2023-06-10T06:53:08;98854.59;;;18.24;84.93
18509;BME280;9383;50.928;12.116;2023-06-10T06:55:34;98866.06;;;18.26;85.21
18509;BME280;9383;50.928;12.116;2023-06-10T06:58:01;98862.31;;;18.41;85.59
18509;BME280;9383;50.928;12.116;2023-06-10T07:00:31;98859.00;;;18.51;83.85
18509;BME280;9383;50.928;12.116;2023-06-10T07:02:58;98863.94;;;18.44;83.72
18509;BME280;9383;50.928;12.116;2023-06-10T07:05:25;98871.69;;;18.49;84.68
18509;BME280;9383;50.928;12.116;2023-06-10T07:07:54;98870.53;;;18.66;85.05
18509;BME280;9383;50.928;12.116;2023-06-10T07:10:23;98870.19;;;18.83;84.46
18509;BME280;9383;50.928;12.116;2023-06-10T07:12:50;98867.81;;;19.05;84.03
18509;BME280;9383;50.928;12.116;2023-06-10T07:15:16;98870.38;;;19.19;82.66
18509;BME280;9383;50.928;12.116;2023-06-10T07:17:43;98871.19;;;19.33;82.91
18509;BME280;9383;50.928;12.116;2023-06-10T07:20:10;98877.59;;;19.56;83.22
18509;BME280;9383;50.928;12.116;2023-06-10T07:22:41;98881.09;;;19.70;80.76
18509;BME280;9383;50.928;12.116;2023-06-10T07:25:07;98883.91;;;19.68;79.16
18509;BME280;9383;50.928;12.116;2023-06-10T07:27:34;98883.91;;;19.68;79.64
18509;BME280;9383;50.928;12.116;2023-06-10T07:30:05;98886.56;;;19.81;80.00
18509;BME280;9383;50.928;12.116;2023-06-10T07:32:33;98878.88;;;19.88;78.79
18509;BME280;9383;50.928;12.116;2023-06-10T07:35:00;98883.81;;;19.94;77.50
18509;BME280;9383;50.928;12.116;2023-06-10T07:37:27;98871.25;;;19.94;77.51
18509;BME280;9383;50.928;12.116;2023-06-10T07:39:54;98876.53;;;20.07;78.14
18509;BME280;9383;50.928;12.116;2023-06-10T07:42:21;98874.66;;;20.32;78.73
18509;BME280;9383;50.928;12.116;2023-06-10T07:44:47;98879.03;;;20.58;78.46
18509;BME280;9383;50.928;12.116;2023-06-10T07:47:14;98886.53;;;20.77;77.65
18509;BME280;9383;50.928;12.116;2023-06-10T07:49:40;98891.66;;;20.80;75.00
18509;BME280;9383;50.928;12.116;2023-06-10T07:52:08;98883.88;;;20.88;75.11
18509;BME280;9383;50.928;12.116;2023-06-10T07:54:35;98890.34;;;20.86;73.53
18509;BME280;9383;50.928;12.116;2023-06-10T07:57:01;98890.06;;;20.77;73.90
18509;BME280;9383;50.928;12.116;2023-06-10T07:59:28;98893.16;;;20.84;74.57
18509;BME280;9383;50.928;12.116;2023-06-10T08:01:54;98892.56;;;21.03;74.96
18509;BME280;9383;50.928;12.116;2023-06-10T08:04:21;98886.34;;;21.26;74.23
18509;BME280;9383;50.928;12.116;2023-06-10T08:06:48;98880.78;;;21.39;73.64
18509;BME280;9383;50.928;12.116;2023-06-10T08:09:14;98880.41;;;21.55;72.69
18509;BME280;9383;50.928;12.116;2023-06-10T08:11:41;98880.66;;;21.52;71.17
18509;BME280;9383;50.928;12.116;2023-06-10T08:14:07;98879.41;;;21.56;71.35
18509;BME280;9383;50.928;12.116;2023-06-10T08:16:34;98885.66;;;21.68;71.64
18509;BME280;9383;50.928;12.116;2023-06-10T08:19:01;98878.78;;;21.75;70.34
18509;BME280;9383;50.928;12.116;2023-06-10T08:21:27;98880.25;;;21.79;70.53
18509;BME280;9383;50.928;12.116;2023-06-10T08:23:55;98877.81;;;21.76;68.56
18509;BME280;9383;50.928;12.116;2023-06-10T08:26:21;98881.09;;;21.80;70.82
18509;BME280;9383;50.928;12.116;2023-06-10T08:28:48;98869.03;;;21.95;70.45
18509;BME280;9383;50.928;12.116;2023-06-10T08:31:14;98874.47;;;22.16;70.52
18509;BME280;9383;50.928;12.116;2023-06-10T08:33:42;98879.69;;;22.29;69.33
18509;BME280;9383;50.928;12.116;2023-06-10T08:36:08;98884.56;;;22.35;68.08
18509;BME280;9383;50.928;12.116;2023-06-10T08:38:35;98876.38;;;22.47;68.82
18509;BME280;9383;50.928;12.116;2023-06-10T08:41:02;98865.09;;;22.53;67.70
18509;BME280;9383;50.928;12.116;2023-06-10T08:43:37;98870.22;;;22.56;68.18
18509;BME280;9383;50.928;12.116;2023-06-10T08:46:09;98872.28;;;22.64;68.42
18509;BME280;9383;50.928;12.116;2023-06-10T08:48:42;98870.47;;;22.74;67.81
18509;BME280;9383;50.928;12.116;2023-06-10T08:51:11;98868.72;;;22.95;67.08
18509;BME280;9383;50.928;12.116;2023-06-10T08:53:48;98869.41;;;22.87;66.35
18509;BME280;9383;50.928;12.116;2023-06-10T08:56:17;98880.97;;;22.99;67.24
18509;BME280;9383;50.928;12.116;2023-06-10T08:58:44;98877.28;;;23.00;66.51
18509;BME280;9383;50.928;12.116;2023-06-10T09:01:11;98881.19;;;23.17;67.60
18509;BME280;9383;50.928;12.116;2023-06-10T09:03:38;98876.97;;;23.24;65.31
18509;BME280;9383;50.928;12.116;2023-06-10T09:06:06;98881.06;;;23.18;65.71
18509;BME280;9383;50.928;12.116;2023-06-10T09:08:36;98877.44;;;23.29;66.54
18509;BME280;9383;50.928;12.116;2023-06-10T09:11:04;98888.03;;;23.42;66.00
18509;BME280;9383;50.928;12.116;2023-06-10T09:13:30;98876.81;;;23.57;66.55
18509;BME280;9383;50.928;12.116;2023-06-10T09:15:57;98875.81;;;23.48;64.66
18509;BME280;9383;50.928;12.116;2023-06-10T09:18:28;98873.63;;;23.42;64.99
18509;BME280;9383;50.928;12.116;2023-06-10T09:20:55;98873.22;;;23.46;65.55
18509;BME280;9383;50.928;12.116;2023-06-10T09:23:25;98877.53;;;23.59;65.86
18509;BME280;9383;50.928;12.116;2023-06-10T09:25:58;98876.41;;;23.81;64.78
18509;BME280;9383;50.928;12.116;2023-06-10T09:28:25;98877.56;;;23.88;64.53
18509;BME280;9383;50.928;12.116;2023-06-10T09:31:03;98873.03;;;23.89;64.01
18509;BME280;9383;50.928;12.116;2023-06-10T09:33:31;98871.59;;;23.85;64.00
18509;BME280;9383;50.928;12.116;2023-06-10T09:35:57;98873.88;;;23.80;63.43
18509;BME280;9383;50.928;12.116;2023-06-10T09:38:31;98879.69;;;23.75;64.69
18509;BME280;9383;50.928;12.116;2023-06-10T09:41:01;98868.75;;;23.96;64.67
18509;BME280;9383;50.928;12.116;2023-06-10T09:43:43;98876.75;;;24.17;63.30
18509;BME280;9383;50.928;12.116;2023-06-10T09:46:20;98874.78;;;24.29;62.93
18509;BME280;9383;50.928;12.116;2023-06-10T09:48:48;98875.63;;;24.40;63.25
18509;BME280;9383;50.928;12.116;2023-06-10T09:51:15;98877.28;;;24.61;63.49
18509;BME280;9383;50.928;12.116;2023-06-10T09:53:47;98876.97;;;24.83;62.03
18509;BME280;9383;50.928;12.116;2023-06-10T09:56:13;98872.06;;;24.97;61.38
18509;BME280;9383;50.928;12.116;2023-06-10T09:58:40;98874.22;;;25.03;59.80
18509;BME280;9383;50.928;12.116;2023-06-10T10:01:11;98861.50;;;25.04;60.33
18509;BME280;9383;50.928;12.116;2023-06-10T10:03:49;98861.44;;;25.13;59.81
18509;BME280;9383;50.928;12.116;2023-06-10T10:06:17;98862.88;;;25.18;60.78
18509;BME280;9383;50.928;12.116;2023-06-10T10:08:49;98867.34;;;25.37;60.93
18509;BME280;9383;50.928;12.116;2023-06-10T10:11:21;98873.03;;;25.43;59.65
18509;BME280;9383;50.928;12.116;2023-06-10T10:13:50;98864.44;;;25.48;58.96
18509;BME280;9383;50.928;12.116;2023-06-10T10:16:36;98856.84;;;25.52;59.75
18509;BME280;9383;50.928;12.116;2023-06-10T10:19:09;98852.41;;;25.51;58.01
18509;BME280;9383;50.928;12.116;2023-06-10T10:21:50;98852.13;;;25.54;58.93
18509;BME280;9383;50.928;12.116;2023-06-10T10:24:21;98859.75;;;25.68;58.66
18509;BME280;9383;50.928;12.116;2023-06-10T10:26:50;98851.78;;;25.85;58.17
18509;BME280;9383;50.928;12.116;2023-06-10T10:29:31;98841.00;;;25.93;57.33
18509;BME280;9383;50.928;12.116;2023-06-10T10:32:00;98800.09;;;25.77;57.61
18509;BME280;9383;50.928;12.116;2023-06-10T10:34:35;98836.50;;;26.20;57.77
18509;BME280;9383;50.928;12.116;2023-06-10T10:37:03;98841.06;;;26.20;56.49
18509;BME280;9383;50.928;12.116;2023-06-10T10:39:30;98841.13;;;26.10;56.05
18509;BME280;9383;50.928;12.116;2023-06-10T10:41:59;98830.28;;;26.10;57.18
18509;BME280;9383;50.928;12.116;2023-06-10T10:44:27;98840.28;;;26.09;55.55
18509;BME280;9383;50.928;12.116;2023-06-10T10:46:54;98837.66;;;25.99;55.62
18509;BME280;9383;50.928;12.116;2023-06-10T10:49:22;98824.50;;;26.13;56.38
18509;BME280;9383;50.928;12.116;2023-06-10T10:52:01;98826.75;;;26.36;56.13
18509;BME280;9383;50.928;12.116;2023-06-10T10:54:32;98825.81;;;26.45;54.19
18509;BME280;9383;50.928;12.116;2023-06-10T10:57:13;98818.94;;;26.33;54.08
18509;BME280;9383;50.928;12.116;2023-06-10T11:02:19;98812.81;;;26.31;55.00
18509;BME280;9383;50.928;12.116;2023-06-10T11:04:58;98814.19;;;26.35;55.70
18509;BME280;9383;50.928;12.116;2023-06-10T11:07:26;98811.31;;;26.36;56.16
18509;BME280;9383;50.928;12.116;2023-06-10T11:12:40;98820.84;;;26.67;56.46
18509;BME280;9383;50.928;12.116;2023-06-10T11:15:07;98816.91;;;26.88;55.71
18509;BME280;9383;50.928;12.116;2023-06-10T11:17:34;98820.22;;;27.00;54.30
18509;BME280;9383;50.928;12.116;2023-06-10T11:20:00;98817.06;;;26.86;50.51
18509;BME280;9383;50.928;12.116;2023-06-10T11:22:27;98807.75;;;26.89;49.47
18509;BME280;9383;50.928;12.116;2023-06-10T11:24:53;98804.63;;;26.83;44.17
18509;BME280;9383;50.928;12.116;2023-06-10T11:27:21;98820.78;;;26.85;44.40
18509;BME280;9383;50.928;12.116;2023-06-10T11:30:17;98810.66;;;26.87;45.34
18509;BME280;9383;50.928;12.116;2023-06-10T11:32:44;98801.53;;;26.78;42.66
18509;BME280;9383;50.928;12.116;2023-06-10T11:35:12;98801.19;;;26.73;42.01
18509;BME280;9383;50.928;12.116;2023-06-10T11:37:38;98791.84;;;26.76;42.50
18509;BME280;9383;50.928;12.116;2023-06-10T11:40:07;98802.16;;;26.90;42.74
18509;BME280;9383;50.928;12.116;2023-06-10T11:42:37;98812.53;;;26.95;39.89
18509;BME280;9383;50.928;12.116;2023-06-10T11:45:06;98796.84;;;26.89;40.06
18509;BME280;9383;50.928;12.116;2023-06-10T11:47:34;98803.31;;;26.88;40.40
18509;BME280;9383;50.928;12.116;2023-06-10T11:50:01;98792.34;;;26.79;40.41
18509;BME280;9383;50.928;12.116;2023-06-10T11:52:30;98797.78;;;26.79;41.27
18509;BME280;9383;50.928;12.116;2023-06-10T11:54:58;98787.84;;;26.62;41.18
18509;BME280;9383;50.928;12.116;2023-06-10T11:57:25;98788.19;;;26.59;41.31
18509;BME280;9383;50.928;12.116;2023-06-10T11:59:52;98800.81;;;26.68;40.31
18509;BME280;9383;50.928;12.116;2023-06-10T12:02:18;98812.25;;;26.80;41.12
18509;BME280;9383;50.928;12.116;2023-06-10T12:04:45;98800.00;;;26.76;39.29
18509;BME280;9383;50.928;12.116;2023-06-10T12:07:19;98805.97;;;26.79;39.29
18509;BME280;9383;50.928;12.116;2023-06-10T12:09:59;98803.94;;;26.81;39.73
18509;BME280;9383;50.928;12.116;2023-06-10T12:12:26;98794.88;;;26.73;40.61
18509;BME280;9383;50.928;12.116;2023-06-10T12:14:57;98790.25;;;26.65;40.58
18509;BME280;9383;50.928;12.116;2023-06-10T12:20:01;98787.50;;;26.57;41.29
18509;BME280;9383;50.928;12.116;2023-06-10T12:22:35;98800.75;;;26.60;40.86
18509;BME280;9383;50.928;12.116;2023-06-10T12:25:04;98788.00;;;26.60;39.88
18509;BME280;9383;50.928;12.116;2023-06-10T12:27:33;98782.69;;;26.50;39.31
18509;BME280;9383;50.928;12.116;2023-06-10T12:30:02;98788.31;;;26.49;40.18
18509;BME280;9383;50.928;12.116;2023-06-10T12:32:44;98779.22;;;26.40;39.66
18509;BME280;9383;50.928;12.116;2023-06-10T12:35:12;98775.47;;;26.33;39.83
18509;BME280;9383;50.928;12.116;2023-06-10T12:37:40;98782.06;;;26.30;39.77
18509;BME280;9383;50.928;12.116;2023-06-10T12:40:07;98787.81;;;26.27;39.91
18509;BME280;9383;50.928;12.116;2023-06-10T12:42:38;98779.34;;;26.30;41.02
18509;BME280;9383;50.928;12.116;2023-06-10T12:45:06;98778.88;;;26.35;41.07
18509;BME280;9383;50.928;12.116;2023-06-10T12:47:35;98771.53;;;26.35;40.71
18509;BME280;9383;50.928;12.116;2023-06-10T12:50:03;98764.81;;;26.39;39.56
18509;BME280;9383;50.928;12.116;2023-06-10T12:52:31;98779.94;;;26.42;41.86
18509;BME280;9383;50.928;12.116;2023-06-10T12:54:59;98774.81;;;26.39;40.55
18509;BME280;9383;50.928;12.116;2023-06-10T12:57:27;98774.81;;;26.39;40.58
18509;BME280;9383;50.928;12.116;2023-06-10T12:59:53;98763.63;;;26.42;41.51
18509;BME280;9383;50.928;12.116;2023-06-10T13:02:20;98772.47;;;26.44;40.79
18509;BME280;9383;50.928;12.116;2023-06-10T13:04:50;98769.75;;;26.44;40.15
18509;BME280;9383;50.928;12.116;2023-06-10T13:07:17;98769.28;;;26.49;41.50
18509;BME280;9383;50.928;12.116;2023-06-10T13:09:44;98768.13;;;26.60;42.33
18509;BME280;9383;50.928;12.116;2023-06-10T13:12:15;98783.50;;;26.69;41.49
18509;BME280;9383;50.928;12.116;2023-06-10T13:14:41;98769.91;;;26.69;41.23
18509;BME280;9383;50.928;12.116;2023-06-10T13:17:08;98781.81;;;26.76;42.52